sensor_id;sensor_type;location;lat;lon;timestamp;P1;durP1;ratioP1;P2;durP2;ratioP2
28926;SDS011;16038;47.692;9.400;2023-11-22T00:00:22;9.95;;;5.38;;
28926;SDS011;16038;47.692;9.400;2023-11-22T00:02:47;7.78;;;5.10;;
28926;SDS011;16038;47.692;9.400;2023-11-22T00:05:12;8.07;;;5.35;;
28926;SDS011;16038;47.692;9.400;2023-11-22T00:07:38;9.43;;;5.93;;
28926;SDS011;16038;47.692;9.400;2023-11-22T00:10:04;9.43;;;6.18;;
28926;SDS011;16038;47.692;9.400;2023-11-22T00:12:30;10.35;;;5.93;;
28926;SDS011;16038;47.692;9.400;2023-11-22T00:15:02;9.45;;;5.55;;
28926;SDS011;16038;47.692;9.400;2023-11-22T00:17:32;10.43;;;5.72;;
28926;SDS011;16038;47.692;9.400;2023-11-22T00:19:59;10.77;;;5.85;;
28926;SDS011;16038;47.692;9.400;2023-11-22T00:22:27;7.70;;;5.25;;
28926;SDS011;16038;47.692;9.400;2023-11-22T00:24:53;8.80;;;5.90;;
28926;SDS011;16038;47.692;9.400;2023-11-22T00:27:18;10.10;;;6.05;;
28926;SDS011;16038;47.692;9.400;2023-11-22T00:29:44;10.18;;;6.82;;
28926;SDS011;16038;47.692;9.400;2023-11-22T00:32:10;9.23;;;5.88;;
28926;SDS011;16038;47.692;9.400;2023-11-22T00:34:36;9.88;;;5.88;;
28926;SDS011;16038;47.692;9.400;2023-11-22T00:37:01;10.10;;;6.53;;
28926;SDS011;16038;47.692;9.400;2023-11-22T00:39:27;10.43;;;5.90;;
28926;SDS011;16038;47.692;9.400;2023-11-22T00:41:52;11.10;;;6.22;;
28926;SDS011;16038;47.692;9.400;2023-11-22T00:44:17;9.52;;;6.22;;
28926;SDS011;16038;47.692;9.400;2023-11-22T00:46:43;10.82;;;6.40;;
28926;SDS011;16038;47.692;9.400;2023-11-22T00:49:10;12.38;;;6.07;;
28926;SDS011;16038;47.692;9.400;2023-11-22T00:51:36;8.98;;;6.13;;
28926;SDS011;16038;47.692;9.400;2023-11-22T00:54:01;12.02;;;7.28;;
28926;SDS011;16038;47.692;9.400;2023-11-22T00:56:27;9.48;;;6.43;;
28926;SDS011;16038;47.692;9.400;2023-11-22T00:58:53;9.43;;;5.97;;
28926;SDS011;16038;47.692;9.400;2023-11-22T01:01:20;10.18;;;6.15;;
28926;SDS011;16038;47.692;9.400;2023-11-22T01:03:45;10.18;;;7.10;;
28926;SDS011;16038;47.692;9.400;2023-11-22T01:06:12;8.85;;;7.05;;
28926;SDS011;16038;47.692;9.400;2023-11-22T01:08:38;13.15;;;7.57;;
28926;SDS011;16038;47.692;9.400;2023-11-22T01:11:03;10.57;;;6.25;;
28926;SDS011;16038;47.692;9.400;2023-11-22T01:13:30;15.23;;;7.60;;
28926;SDS011;16038;47.692;9.400;2023-11-22T01:15:56;10.38;;;6.45;;
28926;SDS011;16038;47.692;9.400;2023-11-22T01:18:22;9.40;;;6.47;;
28926;SDS011;16038;47.692;9.400;2023-11-22T01:20:47;11.13;;;6.55;;
28926;SDS011;16038;47.692;9.400;2023-11-22T01:23:13;10.52;;;6.75;;
28926;SDS011;16038;47.692;9.400;2023-11-22T01:25:39;11.82;;;7.15;;
28926;SDS011;16038;47.692;9.400;2023-11-22T01:28:04;12.35;;;7.25;;
28926;SDS011;16038;47.692;9.400;2023-11-22T01:30:32;11.95;;;7.22;;
28926;SDS011;16038;47.692;9.400;2023-11-22T01:32:58;15.48;;;8.10;;
28926;SDS011;16038;47.692;9.400;2023-11-22T01:35:24;13.13;;;8.05;;
28926;SDS011;16038;47.692;9.400;2023-11-22T01:37:49;16.17;;;8.32;;
28926;SDS011;16038;47.692;9.400;2023-11-22T01:40:15;15.45;;;8.27;;
28926;SDS011;16038;47.692;9.400;2023-11-22T01:42:40;12.68;;;7.43;;
28926;SDS011;16038;47.692;9.400;2023-11-22T01:45:06;13.52;;;7.75;;
28926;SDS011;16038;47.692;9.400;2023-11-22T01:47:32;11.05;;;7.20;;
28926;SDS011;16038;47.692;9.400;2023-11-22T01:50:00;15.85;;;8.23;;
28926;SDS011;16038;47.692;9.400;2023-11-22T01:52:25;14.77;;;7.80;;
28926;SDS011;16038;47.692;9.400;2023-11-22T01:54:51;11.98;;;7.47;;
28926;SDS011;16038;47.692;9.400;2023-11-22T01:57:17;16.77;;;8.38;;
28926;SDS011;16038;47.692;9.400;2023-11-22T01:59:43;12.38;;;7.95;;
28926;SDS011;16038;47.692;9.400;2023-11-22T02:02:10;11.85;;;8.50;;
28926;SDS011;16038;47.692;9.400;2023-11-22T02:04:35;14.90;;;9.02;;
28926;SDS011;16038;47.692;9.400;2023-11-22T02:07:01;16.20;;;8.77;;
28926;SDS011;16038;47.692;9.400;2023-11-22T02:09:27;14.10;;;8.93;;
28926;SDS011;16038;47.692;9.400;2023-11-22T02:11:52;16.10;;;9.32;;
28926;SDS011;16038;47.692;9.400;2023-11-22T02:14:18;13.00;;;8.30;;
28926;SDS011;16038;47.692;9.400;2023-11-22T02:16:44;16.95;;;10.10;;
28926;SDS011;16038;47.692;9.400;2023-11-22T02:19:16;13.40;;;9.25;;
28926;SDS011;16038;47.692;9.400;2023-11-22T02:21:43;16.17;;;8.95;;
28926;SDS011;16038;47.692;9.400;2023-11-22T02:24:09;16.52;;;9.68;;
28926;SDS011;16038;47.692;9.400;2023-11-22T02:26:35;20.08;;;10.25;;
28926;SDS011;16038;47.692;9.400;2023-11-22T02:29:01;21.48;;;9.93;;
28926;SDS011;16038;47.692;9.400;2023-11-22T02:31:29;14.88;;;9.10;;
28926;SDS011;16038;47.692;9.400;2023-11-22T02:33:55;16.13;;;9.65;;
28926;SDS011;16038;47.692;9.400;2023-11-22T02:36:20;17.02;;;9.60;;
28926;SDS011;16038;47.692;9.400;2023-11-22T02:38:47;17.60;;;8.65;;
28926;SDS011;16038;47.692;9.400;2023-11-22T02:41:12;17.08;;;9.93;;
28926;SDS011;16038;47.692;9.400;2023-11-22T02:43:38;18.92;;;9.68;;
28926;SDS011;16038;47.692;9.400;2023-11-22T02:46:04;15.65;;;9.20;;
28926;SDS011;16038;47.692;9.400;2023-11-22T02:48:30;19.33;;;9.50;;
28926;SDS011;16038;47.692;9.400;2023-11-22T02:50:55;16.52;;;10.07;;
28926;SDS011;16038;47.692;9.400;2023-11-22T02:53:21;19.90;;;9.48;;
28926;SDS011;16038;47.692;9.400;2023-11-22T02:55:46;15.27;;;9.07;;
28926;SDS011;16038;47.692;9.400;2023-11-22T02:58:12;14.77;;;8.98;;
28926;SDS011;16038;47.692;9.400;2023-11-22T03:00:38;19.70;;;9.88;;
28926;SDS011;16038;47.692;9.400;2023-11-22T03:03:06;17.52;;;9.68;;
28926;SDS011;16038;47.692;9.400;2023-11-22T03:05:35;18.57;;;9.97;;
28926;SDS011;16038;47.692;9.400;2023-11-22T03:08:02;17.52;;;9.82;;
28926;SDS011;16038;47.692;9.400;2023-11-22T03:10:28;15.80;;;9.13;;
28926;SDS011;16038;47.692;9.400;2023-11-22T03:12:55;15.90;;;10.00;;
28926;SDS011;16038;47.692;9.400;2023-11-22T03:15:20;17.55;;;9.20;;
28926;SDS011;16038;47.692;9.400;2023-11-22T03:17:46;18.40;;;9.23;;
28926;SDS011;16038;47.692;9.400;2023-11-22T03:20:13;16.63;;;9.20;;
28926;SDS011;16038;47.692;9.400;2023-11-22T03:22:40;15.30;;;8.60;;
28926;SDS011;16038;47.692;9.400;2023-11-22T03:25:07;12.25;;;8.38;;
28926;SDS011;16038;47.692;9.400;2023-11-22T03:27:35;13.70;;;8.57;;
28926;SDS011;16038;47.692;9.400;2023-11-22T03:30:00;17.85;;;9.25;;
28926;SDS011;16038;47.692;9.400;2023-11-22T03:32:26;15.07;;;8.35;;
28926;SDS011;16038;47.692;9.400;2023-11-22T03:34:51;16.40;;;9.15;;
28926;SDS011;16038;47.692;9.400;2023-11-22T03:37:17;16.10;;;8.10;;
28926;SDS011;16038;47.692;9.400;2023-11-22T03:39:43;14.85;;;8.27;;
28926;SDS011;16038;47.692;9.400;2023-11-22T03:42:13;15.25;;;9.35;;
28926;SDS011;16038;47.692;9.400;2023-11-22T03:44:42;14.00;;;9.02;;
28926;SDS011;16038;47.692;9.400;2023-11-22T03:47:07;17.10;;;8.50;;
28926;SDS011;16038;47.692;9.400;2023-11-22T03:49:34;17.65;;;8.57;;
28926;SDS011;16038;47.692;9.400;2023-11-22T03:52:00;18.98;;;9.38;;
28926;SDS011;16038;47.692;9.400;2023-11-22T03:54:25;14.70;;;8.45;;
28926;SDS011;16038;47.692;9.400;2023-11-22T03:56:51;15.88;;;9.18;;
28926;SDS011;16038;47.692;9.400;2023-11-22T03:59:17;15.30;;;8.40;;
28926;SDS011;16038;47.692;9.400;2023-11-22T04:01:42;16.67;;;9.20;;
28926;SDS011;16038;47.692;9.400;2023-11-22T04:04:08;20.13;;;9.05;;
28926;SDS011;16038;47.692;9.400;2023-11-22T04:06:35;18.10;;;11.02;;
28926;SDS011;16038;47.692;9.400;2023-11-22T04:09:00;17.60;;;9.93;;
28926;SDS011;16038;47.692;9.400;2023-11-22T04:11:26;19.92;;;9.90;;
28926;SDS011;16038;47.692;9.400;2023-11-22T04:13:54;18.48;;;10.50;;
28926;SDS011;16038;47.692;9.400;2023-11-22T04:16:20;21.30;;;10.75;;
28926;SDS011;16038;47.692;9.400;2023-11-22T04:18:45;25.13;;;10.13;;
28926;SDS011;16038;47.692;9.400;2023-11-22T04:21:11;20.23;;;10.15;;
28926;SDS011;16038;47.692;9.400;2023-11-22T04:23:36;20.98;;;9.93;;
28926;SDS011;16038;47.692;9.400;2023-11-22T04:26:01;18.10;;;9.98;;
28926;SDS011;16038;47.692;9.400;2023-11-22T04:28:27;16.60;;;9.65;;
28926;SDS011;16038;47.692;9.400;2023-11-22T04:30:56;17.20;;;9.15;;
28926;SDS011;16038;47.692;9.400;2023-11-22T04:33:23;15.68;;;9.40;;
28926;SDS011;16038;47.692;9.400;2023-11-22T04:35:49;15.70;;;9.27;;
28926;SDS011;16038;47.692;9.400;2023-11-22T04:38:15;16.40;;;9.38;;
28926;SDS011;16038;47.692;9.400;2023-11-22T04:40:40;15.63;;;9.05;;
28926;SDS011;16038;47.692;9.400;2023-11-22T04:43:07;16.77;;;8.63;;
28926;SDS011;16038;47.692;9.400;2023-11-22T04:45:33;16.73;;;9.55;;
28926;SDS011;16038;47.692;9.400;2023-11-22T04:47:59;13.73;;;8.75;;
28926;SDS011;16038;47.692;9.400;2023-11-22T04:50:25;14.43;;;8.13;;
28926;SDS011;16038;47.692;9.400;2023-11-22T04:52:50;12.20;;;7.88;;
28926;SDS011;16038;47.692;9.400;2023-11-22T04:55:16;17.92;;;8.65;;
28926;SDS011;16038;47.692;9.400;2023-11-22T04:57:42;14.50;;;8.25;;
28926;SDS011;16038;47.692;9.400;2023-11-22T05:00:08;16.92;;;9.55;;
28926;SDS011;16038;47.692;9.400;2023-11-22T05:02:34;13.73;;;8.40;;
28926;SDS011;16038;47.692;9.400;2023-11-22T05:05:00;13.02;;;6.93;;
28926;SDS011;16038;47.692;9.400;2023-11-22T05:07:25;12.02;;;7.40;;
28926;SDS011;16038;47.692;9.400;2023-11-22T05:09:51;13.70;;;7.00;;
28926;SDS011;16038;47.692;9.400;2023-11-22T05:12:16;8.55;;;5.03;;
28926;SDS011;16038;47.692;9.400;2023-11-22T05:14:41;8.80;;;4.22;;
28926;SDS011;16038;47.692;9.400;2023-11-22T05:17:09;7.53;;;4.43;;
28926;SDS011;16038;47.692;9.400;2023-11-22T05:19:34;7.65;;;5.30;;
28926;SDS011;16038;47.692;9.400;2023-11-22T05:21:59;7.63;;;4.95;;
28926;SDS011;16038;47.692;9.400;2023-11-22T05:24:25;9.38;;;5.53;;
28926;SDS011;16038;47.692;9.400;2023-11-22T05:26:51;7.20;;;4.53;;
28926;SDS011;16038;47.692;9.400;2023-11-22T05:29:16;7.43;;;3.90;;
28926;SDS011;16038;47.692;9.400;2023-11-22T05:31:42;4.75;;;3.10;;
28926;SDS011;16038;47.692;9.400;2023-11-22T05:34:07;5.10;;;2.85;;
28926;SDS011;16038;47.692;9.400;2023-11-22T05:36:33;3.80;;;2.53;;
28926;SDS011;16038;47.692;9.400;2023-11-22T05:38:59;3.45;;;2.38;;
28926;SDS011;16038;47.692;9.400;2023-11-22T05:41:24;4.88;;;2.50;;
28926;SDS011;16038;47.692;9.400;2023-11-22T05:43:53;4.63;;;2.90;;
28926;SDS011;16038;47.692;9.400;2023-11-22T05:46:22;6.38;;;3.55;;
28926;SDS011;16038;47.692;9.400;2023-11-22T05:48:53;5.53;;;3.20;;
28926;SDS011;16038;47.692;9.400;2023-11-22T05:53:45;4.75;;;2.97;;
28926;SDS011;16038;47.692;9.400;2023-11-22T05:56:11;4.97;;;3.33;;
28926;SDS011;16038;47.692;9.400;2023-11-22T05:58:37;6.90;;;3.55;;
28926;SDS011;16038;47.692;9.400;2023-11-22T06:01:03;6.75;;;4.38;;
28926;SDS011;16038;47.692;9.400;2023-11-22T06:03:32;6.07;;;4.38;;
28926;SDS011;16038;47.692;9.400;2023-11-22T06:05:59;6.65;;;4.38;;
28926;SDS011;16038;47.692;9.400;2023-11-22T06:08:24;6.55;;;4.63;;
28926;SDS011;16038;47.692;9.400;2023-11-22T06:10:50;8.73;;;4.57;;
28926;SDS011;16038;47.692;9.400;2023-11-22T06:13:16;7.97;;;5.00;;
28926;SDS011;16038;47.692;9.400;2023-11-22T06:15:42;9.52;;;5.85;;
28926;SDS011;16038;47.692;9.400;2023-11-22T06:18:07;10.77;;;5.80;;
28926;SDS011;16038;47.692;9.400;2023-11-22T06:20:33;12.63;;;6.03;;
28926;SDS011;16038;47.692;9.400;2023-11-22T06:22:58;9.13;;;5.47;;
28926;SDS011;16038;47.692;9.400;2023-11-22T06:25:24;10.60;;;5.68;;
28926;SDS011;16038;47.692;9.400;2023-11-22T06:27:49;10.05;;;5.88;;
28926;SDS011;16038;47.692;9.400;2023-11-22T06:30:15;10.77;;;5.38;;
28926;SDS011;16038;47.692;9.400;2023-11-22T06:32:40;11.73;;;4.97;;
28926;SDS011;16038;47.692;9.400;2023-11-22T06:35:08;8.77;;;5.65;;
28926;SDS011;16038;47.692;9.400;2023-11-22T06:37:34;10.35;;;5.72;;
28926;SDS011;16038;47.692;9.400;2023-11-22T06:40:00;8.77;;;6.00;;
28926;SDS011;16038;47.692;9.400;2023-11-22T06:42:25;14.48;;;6.43;;
28926;SDS011;16038;47.692;9.400;2023-11-22T06:44:52;14.13;;;6.68;;
28926;SDS011;16038;47.692;9.400;2023-11-22T06:47:21;19.52;;;10.48;;
28926;SDS011;16038;47.692;9.400;2023-11-22T06:49:46;12.77;;;9.10;;
28926;SDS011;16038;47.692;9.400;2023-11-22T06:52:11;14.50;;;8.60;;
28926;SDS011;16038;47.692;9.400;2023-11-22T06:54:37;14.45;;;7.68;;
28926;SDS011;16038;47.692;9.400;2023-11-22T06:57:03;15.82;;;8.25;;
28926;SDS011;16038;47.692;9.400;2023-11-22T06:59:28;14.73;;;8.65;;
28926;SDS011;16038;47.692;9.400;2023-11-22T07:01:54;14.85;;;7.50;;
28926;SDS011;16038;47.692;9.400;2023-11-22T07:04:21;10.75;;;6.53;;
28926;SDS011;16038;47.692;9.400;2023-11-22T07:06:48;9.82;;;6.90;;
28926;SDS011;16038;47.692;9.400;2023-11-22T07:09:14;20.88;;;13.30;;
28926;SDS011;16038;47.692;9.400;2023-11-22T07:11:40;14.07;;;8.48;;
28926;SDS011;16038;47.692;9.400;2023-11-22T07:14:05;13.10;;;6.53;;
28926;SDS011;16038;47.692;9.400;2023-11-22T07:16:31;11.73;;;6.90;;
28926;SDS011;16038;47.692;9.400;2023-11-22T07:18:58;13.20;;;8.38;;
28926;SDS011;16038;47.692;9.400;2023-11-22T07:21:25;13.02;;;7.40;;
28926;SDS011;16038;47.692;9.400;2023-11-22T07:23:50;15.32;;;8.32;;
28926;SDS011;16038;47.692;9.400;2023-11-22T07:26:16;14.35;;;9.75;;
28926;SDS011;16038;47.692;9.400;2023-11-22T07:28:41;11.13;;;6.75;;
28926;SDS011;16038;47.692;9.400;2023-11-22T07:31:09;22.55;;;13.00;;
28926;SDS011;16038;47.692;9.400;2023-11-22T07:33:36;15.32;;;9.45;;
28926;SDS011;16038;47.692;9.400;2023-11-22T07:36:01;13.85;;;8.65;;
28926;SDS011;16038;47.692;9.400;2023-11-22T07:38:28;13.30;;;7.10;;
28926;SDS011;16038;47.692;9.400;2023-11-22T07:40:57;12.75;;;7.70;;
28926;SDS011;16038;47.692;9.400;2023-11-22T07:43:23;13.32;;;8.70;;
28926;SDS011;16038;47.692;9.400;2023-11-22T07:45:48;15.60;;;9.63;;
28926;SDS011;16038;47.692;9.400;2023-11-22T07:48:16;15.07;;;8.23;;
28926;SDS011;16038;47.692;9.400;2023-11-22T07:50:41;11.95;;;6.93;;
28926;SDS011;16038;47.692;9.400;2023-11-22T07:53:10;12.90;;;6.88;;
28926;SDS011;16038;47.692;9.400;2023-11-22T07:55:40;12.95;;;6.80;;
28926;SDS011;16038;47.692;9.400;2023-11-22T07:58:07;16.15;;;9.93;;
28926;SDS011;16038;47.692;9.400;2023-11-22T08:00:33;11.50;;;7.47;;
28926;SDS011;16038;47.692;9.400;2023-11-22T08:03:07;11.00;;;6.85;;
28926;SDS011;16038;47.692;9.400;2023-11-22T08:05:32;13.15;;;7.40;;
28926;SDS011;16038;47.692;9.400;2023-11-22T08:08:04;10.02;;;6.32;;
28926;SDS011;16038;47.692;9.400;2023-11-22T08:10:36;15.57;;;7.28;;
28926;SDS011;16038;47.692;9.400;2023-11-22T08:13:02;12.32;;;7.07;;
28926;SDS011;16038;47.692;9.400;2023-11-22T08:15:28;14.15;;;6.35;;
28926;SDS011;16038;47.692;9.400;2023-11-22T08:17:56;12.75;;;7.40;;
28926;SDS011;16038;47.692;9.400;2023-11-22T08:20:22;13.45;;;7.22;;
28926;SDS011;16038;47.692;9.400;2023-11-22T08:22:47;12.30;;;7.82;;
28926;SDS011;16038;47.692;9.400;2023-11-22T08:25:16;13.38;;;7.32;;
28926;SDS011;16038;47.692;9.400;2023-11-22T08:27:42;12.45;;;7.70;;
28926;SDS011;16038;47.692;9.400;2023-11-22T08:30:08;13.38;;;8.23;;
28926;SDS011;16038;47.692;9.400;2023-11-22T08:32:38;14.98;;;8.63;;
28926;SDS011;16038;47.692;9.400;2023-11-22T08:35:06;15.60;;;8.38;;
28926;SDS011;16038;47.692;9.400;2023-11-22T08:37:33;14.27;;;7.85;;
28926;SDS011;16038;47.692;9.400;2023-11-22T08:40:00;14.98;;;8.77;;
28926;SDS011;16038;47.692;9.400;2023-11-22T08:42:26;15.63;;;9.38;;
28926;SDS011;16038;47.692;9.400;2023-11-22T08:44:51;16.50;;;9.00;;
28926;SDS011;16038;47.692;9.400;2023-11-22T08:47:17;19.58;;;11.57;;
28926;SDS011;16038;47.692;9.400;2023-11-22T08:49:43;14.45;;;9.02;;
28926;SDS011;16038;47.692;9.400;2023-11-22T08:52:08;15.05;;;8.73;;
28926;SDS011;16038;47.692;9.400;2023-11-22T08:54:34;14.55;;;8.10;;
28926;SDS011;16038;47.692;9.400;2023-11-22T08:56:59;12.30;;;7.65;;
28926;SDS011;16038;47.692;9.400;2023-11-22T08:59:25;13.90;;;8.88;;
28926;SDS011;16038;47.692;9.400;2023-11-22T09:01:51;13.10;;;7.25;;
28926;SDS011;16038;47.692;9.400;2023-11-22T09:04:17;11.55;;;7.78;;
28926;SDS011;16038;47.692;9.400;2023-11-22T09:06:43;11.43;;;7.28;;
28926;SDS011;16038;47.692;9.400;2023-11-22T09:09:09;12.30;;;7.90;;
28926;SDS011;16038;47.692;9.400;2023-11-22T09:11:40;11.82;;;6.97;;
28926;SDS011;16038;47.692;9.400;2023-11-22T09:14:06;10.25;;;6.32;;
28926;SDS011;16038;47.692;9.400;2023-11-22T09:16:38;15.18;;;8.18;;
28926;SDS011;16038;47.692;9.400;2023-11-22T09:19:04;11.38;;;6.65;;
28926;SDS011;16038;47.692;9.400;2023-11-22T09:21:32;9.50;;;5.72;;
28926;SDS011;16038;47.692;9.400;2023-11-22T09:23:57;7.97;;;5.35;;
28926;SDS011;16038;47.692;9.400;2023-11-22T09:26:24;8.50;;;5.00;;
28926;SDS011;16038;47.692;9.400;2023-11-22T09:28:49;11.00;;;5.82;;
28926;SDS011;16038;47.692;9.400;2023-11-22T09:31:14;9.13;;;4.82;;
28926;SDS011;16038;47.692;9.400;2023-11-22T09:33:43;8.75;;;5.30;;
28926;SDS011;16038;47.692;9.400;2023-11-22T09:36:08;8.30;;;4.65;;
28926;SDS011;16038;47.692;9.400;2023-11-22T09:38:34;6.97;;;3.95;;
28926;SDS011;16038;47.692;9.400;2023-11-22T09:40:59;7.78;;;4.50;;
28926;SDS011;16038;47.692;9.400;2023-11-22T09:43:27;8.57;;;5.10;;
28926;SDS011;16038;47.692;9.400;2023-11-22T09:45:54;10.20;;;5.78;;
28926;SDS011;16038;47.692;9.400;2023-11-22T09:48:22;7.90;;;5.03;;
28926;SDS011;16038;47.692;9.400;2023-11-22T09:51:09;9.32;;;4.68;;
28926;SDS011;16038;47.692;9.400;2023-11-22T09:53:49;7.20;;;4.78;;
28926;SDS011;16038;47.692;9.400;2023-11-22T09:56:32;7.20;;;4.38;;
28926;SDS011;16038;47.692;9.400;2023-11-22T09:58:59;6.93;;;3.83;;
28926;SDS011;16038;47.692;9.400;2023-11-22T10:01:28;6.60;;;4.22;;
28926;SDS011;16038;47.692;9.400;2023-11-22T10:03:56;6.38;;;4.30;;
28926;SDS011;16038;47.692;9.400;2023-11-22T10:06:22;9.70;;;6.82;;
28926;SDS011;16038;47.692;9.400;2023-11-22T10:08:47;8.25;;;5.05;;
28926;SDS011;16038;47.692;9.400;2023-11-22T10:11:15;6.75;;;4.85;;
28926;SDS011;16038;47.692;9.400;2023-11-22T10:13:49;9.18;;;5.60;;
28926;SDS011;16038;47.692;9.400;2023-11-22T10:16:16;10.88;;;8.02;;
28926;SDS011;16038;47.692;9.400;2023-11-22T10:18:43;8.65;;;5.68;;
28926;SDS011;16038;47.692;9.400;2023-11-22T10:21:18;11.27;;;7.10;;
28926;SDS011;16038;47.692;9.400;2023-11-22T10:23:54;10.18;;;6.22;;
28926;SDS011;16038;47.692;9.400;2023-11-22T10:26:21;10.57;;;6.47;;
28926;SDS011;16038;47.692;9.400;2023-11-22T10:28:50;10.38;;;5.78;;
28926;SDS011;16038;47.692;9.400;2023-11-22T10:31:16;6.70;;;4.32;;
28926;SDS011;16038;47.692;9.400;2023-11-22T10:33:42;7.80;;;5.35;;
28926;SDS011;16038;47.692;9.400;2023-11-22T10:36:08;8.73;;;4.72;;
28926;SDS011;16038;47.692;9.400;2023-11-22T10:38:34;7.28;;;5.00;;
28926;SDS011;16038;47.692;9.400;2023-11-22T10:41:04;8.77;;;5.45;;
28926;SDS011;16038;47.692;9.400;2023-11-22T10:45:57;5.88;;;4.30;;
28926;SDS011;16038;47.692;9.400;2023-11-22T10:48:23;5.93;;;4.07;;
28926;SDS011;16038;47.692;9.400;2023-11-22T10:50:50;8.63;;;4.07;;
28926;SDS011;16038;47.692;9.400;2023-11-22T10:53:25;6.55;;;4.38;;
28926;SDS011;16038;47.692;9.400;2023-11-22T10:56:01;7.13;;;3.67;;
28926;SDS011;16038;47.692;9.400;2023-11-22T10:58:58;9.70;;;4.25;;
28926;SDS011;16038;47.692;9.400;2023-11-22T11:01:29;7.00;;;4.38;;
28926;SDS011;16038;47.692;9.400;2023-11-22T11:03:56;6.20;;;4.13;;
28926;SDS011;16038;47.692;9.400;2023-11-22T11:06:31;6.38;;;3.88;;
28926;SDS011;16038;47.692;9.400;2023-11-22T11:09:02;5.95;;;4.20;;
28926;SDS011;16038;47.692;9.400;2023-11-22T11:11:40;6.32;;;3.72;;
28926;SDS011;16038;47.692;9.400;2023-11-22T11:14:06;7.10;;;4.00;;
28926;SDS011;16038;47.692;9.400;2023-11-22T11:16:35;5.03;;;3.40;;
28926;SDS011;16038;47.692;9.400;2023-11-22T11:19:03;31.40;;;13.85;;
28926;SDS011;16038;47.692;9.400;2023-11-22T11:21:30;5.13;;;3.65;;
28926;SDS011;16038;47.692;9.400;2023-11-22T11:23:57;5.75;;;3.63;;
28926;SDS011;16038;47.692;9.400;2023-11-22T11:28:54;5.35;;;3.10;;
28926;SDS011;16038;47.692;9.400;2023-11-22T11:31:22;4.68;;;3.20;;
28926;SDS011;16038;47.692;9.400;2023-11-22T11:36:20;6.10;;;4.22;;
28926;SDS011;16038;47.692;9.400;2023-11-22T11:38:54;10.13;;;6.28;;
28926;SDS011;16038;47.692;9.400;2023-11-22T11:41:25;4.25;;;2.67;;
28926;SDS011;16038;47.692;9.400;2023-11-22T11:43:52;5.38;;;2.97;;
28926;SDS011;16038;47.692;9.400;2023-11-22T11:46:17;5.43;;;2.78;;
28926;SDS011;16038;47.692;9.400;2023-11-22T11:48:43;8.25;;;3.10;;
28926;SDS011;16038;47.692;9.400;2023-11-22T11:51:10;5.78;;;3.03;;
28926;SDS011;16038;47.692;9.400;2023-11-22T11:53:38;6.47;;;4.13;;
28926;SDS011;16038;47.692;9.400;2023-11-22T11:56:04;7.15;;;4.30;;
28926;SDS011;16038;47.692;9.400;2023-11-22T11:58:30;6.70;;;3.45;;
28926;SDS011;16038;47.692;9.400;2023-11-22T12:00:57;4.68;;;3.13;;
28926;SDS011;16038;47.692;9.400;2023-11-22T12:03:23;6.03;;;3.38;;
28926;SDS011;16038;47.692;9.400;2023-11-22T12:05:48;6.65;;;3.67;;
28926;SDS011;16038;47.692;9.400;2023-11-22T12:08:16;8.27;;;3.90;;
28926;SDS011;16038;47.692;9.400;2023-11-22T12:10:44;5.75;;;3.67;;
28926;SDS011;16038;47.692;9.400;2023-11-22T12:13:15;8.13;;;4.03;;
28926;SDS011;16038;47.692;9.400;2023-11-22T12:15:42;7.00;;;4.13;;
28926;SDS011;16038;47.692;9.400;2023-11-22T12:18:07;8.35;;;4.20;;
28926;SDS011;16038;47.692;9.400;2023-11-22T12:20:33;7.78;;;4.65;;
28926;SDS011;16038;47.692;9.400;2023-11-22T12:22:59;9.40;;;5.10;;
28926;SDS011;16038;47.692;9.400;2023-11-22T12:25:27;7.45;;;4.78;;
28926;SDS011;16038;47.692;9.400;2023-11-22T12:27:56;6.85;;;4.47;;
28926;SDS011;16038;47.692;9.400;2023-11-22T12:30:32;8.32;;;5.85;;
28926;SDS011;16038;47.692;9.400;2023-11-22T12:33:02;9.38;;;5.53;;
28926;SDS011;16038;47.692;9.400;2023-11-22T12:35:34;8.35;;;5.30;;
28926;SDS011;16038;47.692;9.400;2023-11-22T12:38:01;7.57;;;5.35;;
28926;SDS011;16038;47.692;9.400;2023-11-22T12:40:28;8.05;;;5.03;;
28926;SDS011;16038;47.692;9.400;2023-11-22T12:42:56;8.02;;;5.10;;
28926;SDS011;16038;47.692;9.400;2023-11-22T12:45:22;8.02;;;5.85;;
28926;SDS011;16038;47.692;9.400;2023-11-22T12:47:52;7.88;;;4.60;;
28926;SDS011;16038;47.692;9.400;2023-11-22T12:50:37;9.85;;;5.53;;
28926;SDS011;16038;47.692;9.400;2023-11-22T12:53:07;8.57;;;5.60;;
28926;SDS011;16038;47.692;9.400;2023-11-22T12:55:36;7.88;;;5.03;;
28926;SDS011;16038;47.692;9.400;2023-11-22T12:58:18;7.40;;;4.72;;
28926;SDS011;16038;47.692;9.400;2023-11-22T13:00:45;8.75;;;5.47;;
28926;SDS011;16038;47.692;9.400;2023-11-22T13:03:12;14.23;;;7.75;;
28926;SDS011;16038;47.692;9.400;2023-11-22T13:05:41;10.35;;;5.80;;
28926;SDS011;16038;47.692;9.400;2023-11-22T13:08:09;7.18;;;4.50;;
28926;SDS011;16038;47.692;9.400;2023-11-22T13:13:19;11.50;;;4.40;;
28926;SDS011;16038;47.692;9.400;2023-11-22T13:15:46;8.68;;;4.82;;
28926;SDS011;16038;47.692;9.400;2023-11-22T13:18:11;10.50;;;5.10;;
28926;SDS011;16038;47.692;9.400;2023-11-22T13:20:37;7.78;;;5.38;;
28926;SDS011;16038;47.692;9.400;2023-11-22T13:23:05;8.90;;;5.20;;
28926;SDS011;16038;47.692;9.400;2023-11-22T13:25:31;9.02;;;5.20;;
28926;SDS011;16038;47.692;9.400;2023-11-22T13:27:56;8.40;;;5.40;;
28926;SDS011;16038;47.692;9.400;2023-11-22T13:30:22;8.88;;;5.38;;
28926;SDS011;16038;47.692;9.400;2023-11-22T13:32:48;7.95;;;5.10;;
28926;SDS011;16038;47.692;9.400;2023-11-22T13:35:14;8.85;;;5.53;;
28926;SDS011;16038;47.692;9.400;2023-11-22T13:37:42;7.57;;;5.53;;
28926;SDS011;16038;47.692;9.400;2023-11-22T13:40:13;8.52;;;5.30;;
28926;SDS011;16038;47.692;9.400;2023-11-22T13:42:40;10.55;;;6.18;;
28926;SDS011;16038;47.692;9.400;2023-11-22T13:45:10;11.05;;;6.10;;
28926;SDS011;16038;47.692;9.400;2023-11-22T13:47:40;11.55;;;6.40;;
28926;SDS011;16038;47.692;9.400;2023-11-22T13:50:07;11.23;;;6.40;;
28926;SDS011;16038;47.692;9.400;2023-11-22T13:52:33;10.73;;;5.90;;
28926;SDS011;16038;47.692;9.400;2023-11-22T13:54:58;9.38;;;5.53;;
28926;SDS011;16038;47.692;9.400;2023-11-22T13:57:24;9.93;;;5.72;;
28926;SDS011;16038;47.692;9.400;2023-11-22T13:59:49;9.75;;;5.82;;
28926;SDS011;16038;47.692;9.400;2023-11-22T14:02:15;9.25;;;6.00;;
28926;SDS011;16038;47.692;9.400;2023-11-22T14:04:41;9.13;;;5.70;;
28926;SDS011;16038;47.692;9.400;2023-11-22T14:07:07;9.40;;;5.75;;
28926;SDS011;16038;47.692;9.400;2023-11-22T14:09:32;12.20;;;5.75;;
28926;SDS011;16038;47.692;9.400;2023-11-22T14:12:01;9.40;;;6.10;;
28926;SDS011;16038;47.692;9.400;2023-11-22T14:14:27;9.85;;;5.50;;
28926;SDS011;16038;47.692;9.400;2023-11-22T14:16:53;9.10;;;5.53;;
28926;SDS011;16038;47.692;9.400;2023-11-22T14:19:18;9.07;;;5.78;;
28926;SDS011;16038;47.692;9.400;2023-11-22T14:21:43;13.25;;;6.45;;
28926;SDS011;16038;47.692;9.400;2023-11-22T14:24:09;10.55;;;6.35;;
28926;SDS011;16038;47.692;9.400;2023-11-22T14:26:35;8.82;;;5.53;;
28926;SDS011;16038;47.692;9.400;2023-11-22T14:29:02;8.40;;;6.03;;
28926;SDS011;16038;47.692;9.400;2023-11-22T14:31:28;10.02;;;6.28;;
28926;SDS011;16038;47.692;9.400;2023-11-22T14:33:54;11.57;;;5.70;;
28926;SDS011;16038;47.692;9.400;2023-11-22T14:36:21;13.48;;;7.35;;
28926;SDS011;16038;47.692;9.400;2023-11-22T14:38:47;13.50;;;8.35;;
28926;SDS011;16038;47.692;9.400;2023-11-22T14:41:19;16.58;;;11.18;;
28926;SDS011;16038;47.692;9.400;2023-11-22T14:43:44;17.65;;;9.75;;
28926;SDS011;16038;47.692;9.400;2023-11-22T14:46:10;17.17;;;10.30;;
28926;SDS011;16038;47.692;9.400;2023-11-22T14:48:35;13.55;;;9.18;;